sensor_id;sensor_type;location;lat;lon;timestamp;temperature;humidity
8872;DHT22;4472;52.092;9.820;2023-02-02T00:01:51;4.80;99.90
8872;DHT22;4472;52.092;9.820;2023-02-02T00:04:39;4.70;99.90
8872;DHT22;4472;52.092;9.820;2023-02-02T00:07:26;4.60;99.90
8872;DHT22;4472;52.092;9.820;2023-02-02T00:10:13;4.60;99.90
8872;DHT22;4472;52.092;9.820;2023-02-02T00:13:02;4.60;99.90
8872;DHT22;4472;52.092;9.820;2023-02-02T00:15:49;4.70;99.90
8872;DHT22;4472;52.092;9.820;2023-02-02T00:18:38;4.60;99.90
8872;DHT22;4472;52.092;9.820;2023-02-02T00:21:26;4.60;99.90
8872;DHT22;4472;52.092;9.820;2023-02-02T00:24:15;4.60;99.90
8872;DHT22;4472;52.092;9.820;2023-02-02T00:27:03;4.50;99.90
8872;DHT22;4472;52.092;9.820;2023-02-02T00:29:52;4.60;99.90
8872;DHT22;4472;52.092;9.820;2023-02-02T00:32:39;4.50;99.90
8872;DHT22;4472;52.092;9.820;2023-02-02T00:35:26;4.60;99.90
8872;DHT22;4472;52.092;9.820;2023-02-02T00:38:14;4.50;99.90
8872;DHT22;4472;52.092;9.820;2023-02-02T00:41:01;4.50;99.90
8872;DHT22;4472;52.092;9.820;2023-02-02T00:43:48;4.50;99.90
8872;DHT22;4472;52.092;9.820;2023-02-02T00:46:56;4.60;99.90
8872;DHT22;4472;52.092;9.820;2023-02-02T00:49:43;4.60;99.90
8872;DHT22;4472;52.092;9.820;2023-02-02T00:52:30;4.70;99.90
8872;DHT22;4472;52.092;9.820;2023-02-02T00:55:17;4.80;99.90
8872;DHT22;4472;52.092;9.820;2023-02-02T00:58:05;4.80;99.90
8872;DHT22;4472;52.092;9.820;2023-02-02T01:00:52;4.90;99.90
8872;DHT22;4472;52.092;9.820;2023-02-02T01:03:41;4.80;99.90
8872;DHT22;4472;52.092;9.820;2023-02-02T01:06:28;4.90;99.90
8872;DHT22;4472;52.092;9.820;2023-02-02T01:09:15;4.90;99.90
8872;DHT22;4472;52.092;9.820;2023-02-02T01:12:02;4.90;99.90
8872;DHT22;4472;52.092;9.820;2023-02-02T01:14:49;5.00;99.90
8872;DHT22;4472;52.092;9.820;2023-02-02T01:17:37;5.00;99.90
8872;DHT22;4472;52.092;9.820;2023-02-02T01:20:25;5.00;99.90
8872;DHT22;4472;52.092;9.820;2023-02-02T01:23:13;5.10;99.90
8872;DHT22;4472;52.092;9.820;2023-02-02T01:26:01;5.20;99.90
8872;DHT22;4472;52.092;9.820;2023-02-02T01:28:49;5.10;99.90
8872;DHT22;4472;52.092;9.820;2023-02-02T01:31:36;5.10;99.90
8872;DHT22;4472;52.092;9.820;2023-02-02T01:34:23;5.30;99.90
8872;DHT22;4472;52.092;9.820;2023-02-02T01:37:12;5.10;99.90
8872;DHT22;4472;52.092;9.820;2023-02-02T01:39:59;5.10;99.90
8872;DHT22;4472;52.092;9.820;2023-02-02T01:42:46;5.20;99.90
8872;DHT22;4472;52.092;9.820;2023-02-02T01:45:33;5.10;99.90
8872;DHT22;4472;52.092;9.820;2023-02-02T01:48:24;5.10;99.90
8872;DHT22;4472;52.092;9.820;2023-02-02T01:51:14;5.10;99.90
8872;DHT22;4472;52.092;9.820;2023-02-02T01:54:05;5.20;99.90
8872;DHT22;4472;52.092;9.820;2023-02-02T01:56:58;5.20;99.90
8872;DHT22;4472;52.092;9.820;2023-02-02T01:59:46;5.20;99.90
8872;DHT22;4472;52.092;9.820;2023-02-02T02:02:36;5.40;99.90
8872;DHT22;4472;52.092;9.820;2023-02-02T02:05:27;5.10;99.90
8872;DHT22;4472;52.092;9.820;2023-02-02T02:08:17;5.20;99.90
8872;DHT22;4472;52.092;9.820;2023-02-02T02:11:06;5.10;99.90
8872;DHT22;4472;52.092;9.820;2023-02-02T02:13:55;5.00;99.90
8872;DHT22;4472;52.092;9.820;2023-02-02T02:17:17;5.00;99.90
8872;DHT22;4472;52.092;9.820;2023-02-02T02:20:38;5.00;99.90
8872;DHT22;4472;52.092;9.820;2023-02-02T02:28:03;4.90;99.90
8872;DHT22;4472;52.092;9.820;2023-02-02T02:34:26;4.90;99.90
8872;DHT22;4472;52.092;9.820;2023-02-02T02:37:27;4.80;99.90
8872;DHT22;4472;52.092;9.820;2023-02-02T02:40:21;4.70;99.90
8872;DHT22;4472;52.092;9.820;2023-02-02T02:43:12;4.70;99.90
8872;DHT22;4472;52.092;9.820;2023-02-02T02:46:01;4.70;99.90
8872;DHT22;4472;52.092;9.820;2023-02-02T02:48:49;4.70;99.90
8872;DHT22;4472;52.092;9.820;2023-02-02T02:51:48;4.80;99.90
8872;DHT22;4472;52.092;9.820;2023-02-02T02:54:38;5.50;99.90
8872;DHT22;4472;52.092;9.820;2023-02-02T02:57:57;4.70;99.90
8872;DHT22;4472;52.092;9.820;2023-02-02T03:01:02;4.70;99.90
8872;DHT22;4472;52.092;9.820;2023-02-02T03:04:03;4.80;99.90
8872;DHT22;4472;52.092;9.820;2023-02-02T03:06:58;4.60;99.90
8872;DHT22;4472;52.092;9.820;2023-02-02T03:09:47;4.60;99.90
8872;DHT22;4472;52.092;9.820;2023-02-02T03:12:42;4.60;99.90
8872;DHT22;4472;52.092;9.820;2023-02-02T03:15:30;4.50;99.90
8872;DHT22;4472;52.092;9.820;2023-02-02T03:18:19;4.60;99.90
8872;DHT22;4472;52.092;9.820;2023-02-02T03:21:07;4.50;99.90
8872;DHT22;4472;52.092;9.820;2023-02-02T03:23:56;4.80;99.90
8872;DHT22;4472;52.092;9.820;2023-02-02T03:26:44;4.90;99.90
8872;DHT22;4472;52.092;9.820;2023-02-02T03:29:31;4.80;99.90
8872;DHT22;4472;52.092;9.820;2023-02-02T03:32:18;4.50;99.90
8872;DHT22;4472;52.092;9.820;2023-02-02T03:35:07;4.60;99.90
8872;DHT22;4472;52.092;9.820;2023-02-02T03:37:54;4.50;99.90
8872;DHT22;4472;52.092;9.820;2023-02-02T03:40:43;4.50;99.90
8872;DHT22;4472;52.092;9.820;2023-02-02T03:43:30;4.50;99.90
8872;DHT22;4472;52.092;9.820;2023-02-02T03:46:17;4.60;99.90
8872;DHT22;4472;52.092;9.820;2023-02-02T03:49:04;4.50;99.90
8872;DHT22;4472;52.092;9.820;2023-02-02T03:51:51;4.50;99.90
8872;DHT22;4472;52.092;9.820;2023-02-02T03:54:38;4.50;99.90
8872;DHT22;4472;52.092;9.820;2023-02-02T03:57:27;4.40;99.90
8872;DHT22;4472;52.092;9.820;2023-02-02T04:00:14;4.40;99.90
8872;DHT22;4472;52.092;9.820;2023-02-02T04:03:02;4.40;99.90
8872;DHT22;4472;52.092;9.820;2023-02-02T04:05:49;4.40;99.90
8872;DHT22;4472;52.092;9.820;2023-02-02T04:08:36;4.40;99.90
8872;DHT22;4472;52.092;9.820;2023-02-02T04:11:24;4.40;99.90
8872;DHT22;4472;52.092;9.820;2023-02-02T04:14:12;4.40;99.90
8872;DHT22;4472;52.092;9.820;2023-02-02T04:17:00;4.40;99.90
8872;DHT22;4472;52.092;9.820;2023-02-02T04:19:47;4.50;99.90
8872;DHT22;4472;52.092;9.820;2023-02-02T04:22:34;4.40;99.90
8872;DHT22;4472;52.092;9.820;2023-02-02T04:25:21;4.40;99.90
8872;DHT22;4472;52.092;9.820;2023-02-02T04:28:08;4.40;99.90
8872;DHT22;4472;52.092;9.820;2023-02-02T04:30:57;4.40;99.90
8872;DHT22;4472;52.092;9.820;2023-02-02T04:33:44;4.50;99.90
8872;DHT22;4472;52.092;9.820;2023-02-02T04:36:31;4.50;99.90
8872;DHT22;4472;52.092;9.820;2023-02-02T04:39:19;4.50;99.90
8872;DHT22;4472;52.092;9.820;2023-02-02T04:42:06;4.50;99.90
8872;DHT22;4472;52.092;9.820;2023-02-02T04:44:53;4.70;99.90
8872;DHT22;4472;52.092;9.820;2023-02-02T04:47:41;4.60;99.90
8872;DHT22;4472;52.092;9.820;2023-02-02T04:50:29;4.60;99.90
8872;DHT22;4472;52.092;9.820;2023-02-02T04:53:17;4.70;99.90
8872;DHT22;4472;52.092;9.820;2023-02-02T04:56:05;4.80;99.90
8872;DHT22;4472;52.092;9.820;2023-02-02T04:58:53;4.70;99.90
8872;DHT22;4472;52.092;9.820;2023-02-02T05:01:40;4.70;99.90
8872;DHT22;4472;52.092;9.820;2023-02-02T05:04:29;4.70;99.90
8872;DHT22;4472;52.092;9.820;2023-02-02T05:07:16;4.80;99.90
8872;DHT22;4472;52.092;9.820;2023-02-02T05:10:04;4.80;99.90
8872;DHT22;4472;52.092;9.820;2023-02-02T05:12:52;4.70;99.90
8872;DHT22;4472;52.092;9.820;2023-02-02T05:15:39;4.80;99.90
8872;DHT22;4472;52.092;9.820;2023-02-02T05:18:26;4.80;99.90
8872;DHT22;4472;52.092;9.820;2023-02-02T05:21:15;4.80;99.90
8872;DHT22;4472;52.092;9.820;2023-02-02T05:24:02;4.70;99.90
8872;DHT22;4472;52.092;9.820;2023-02-02T05:26:49;4.70;99.90
8872;DHT22;4472;52.092;9.820;2023-02-02T05:29:38;4.60;99.90
8872;DHT22;4472;52.092;9.820;2023-02-02T05:32:25;4.70;99.90
8872;DHT22;4472;52.092;9.820;2023-02-02T05:35:13;4.70;99.90
8872;DHT22;4472;52.092;9.820;2023-02-02T05:38:02;4.70;99.90
8872;DHT22;4472;52.092;9.820;2023-02-02T05:40:49;4.80;99.90
8872;DHT22;4472;52.092;9.820;2023-02-02T05:43:37;4.80;99.90
8872;DHT22;4472;52.092;9.820;2023-02-02T05:46:24;4.80;99.90
8872;DHT22;4472;52.092;9.820;2023-02-02T05:49:13;4.80;99.90
8872;DHT22;4472;52.092;9.820;2023-02-02T05:52:00;5.00;99.90
8872;DHT22;4472;52.092;9.820;2023-02-02T05:54:49;4.70;99.90
8872;DHT22;4472;52.092;9.820;2023-02-02T05:57:36;4.70;99.90
8872;DHT22;4472;52.092;9.820;2023-02-02T06:00:23;4.70;99.90
8872;DHT22;4472;52.092;9.820;2023-02-02T06:03:11;4.70;99.90
8872;DHT22;4472;52.092;9.820;2023-02-02T06:05:58;4.70;99.90
8872;DHT22;4472;52.092;9.820;2023-02-02T06:08:45;4.60;99.90
8872;DHT22;4472;52.092;9.820;2023-02-02T06:11:34;4.60;99.90
8872;DHT22;4472;52.092;9.820;2023-02-02T06:14:21;4.60;99.90
8872;DHT22;4472;52.092;9.820;2023-02-02T06:17:08;4.70;99.90
8872;DHT22;4472;52.092;9.820;2023-02-02T06:19:56;4.70;99.90
8872;DHT22;4472;52.092;9.820;2023-02-02T06:22:43;4.70;99.90
8872;DHT22;4472;52.092;9.820;2023-02-02T06:25:30;4.70;99.90
8872;DHT22;4472;52.092;9.820;2023-02-02T06:28:20;4.70;99.90
8872;DHT22;4472;52.092;9.820;2023-02-02T06:31:09;4.70;99.90
8872;DHT22;4472;52.092;9.820;2023-02-02T06:33:57;4.70;99.90
8872;DHT22;4472;52.092;9.820;2023-02-02T06:36:44;4.70;99.90
8872;DHT22;4472;52.092;9.820;2023-02-02T06:39:32;4.70;99.90
8872;DHT22;4472;52.092;9.820;2023-02-02T06:42:19;4.70;99.90
8872;DHT22;4472;52.092;9.820;2023-02-02T06:45:09;4.90;99.90
8872;DHT22;4472;52.092;9.820;2023-02-02T06:47:58;4.80;99.90
8872;DHT22;4472;52.092;9.820;2023-02-02T06:50:48;4.80;99.90
8872;DHT22;4472;52.092;9.820;2023-02-02T06:53:35;4.80;99.90
8872;DHT22;4472;52.092;9.820;2023-02-02T06:56:22;4.80;99.90
8872;DHT22;4472;52.092;9.820;2023-02-02T06:59:10;4.90;99.90
8872;DHT22;4472;52.092;9.820;2023-02-02T07:01:58;4.90;99.90
8872;DHT22;4472;52.092;9.820;2023-02-02T07:04:46;4.90;99.90
8872;DHT22;4472;52.092;9.820;2023-02-02T07:07:33;5.00;99.90
8872;DHT22;4472;52.092;9.820;2023-02-02T07:10:21;5.10;99.90
8872;DHT22;4472;52.092;9.820;2023-02-02T07:13:08;5.00;99.90
8872;DHT22;4472;52.092;9.820;2023-02-02T07:15:55;5.00;99.90
8872;DHT22;4472;52.092;9.820;2023-02-02T07:18:44;5.10;99.90
8872;DHT22;4472;52.092;9.820;2023-02-02T07:21:33;5.10;99.90
8872;DHT22;4472;52.092;9.820;2023-02-02T07:24:21;5.20;99.90
8872;DHT22;4472;52.092;9.820;2023-02-02T07:27:08;5.20;99.90
8872;DHT22;4472;52.092;9.820;2023-02-02T07:29:55;5.20;99.90
8872;DHT22;4472;52.092;9.820;2023-02-02T07:32:46;5.30;99.90
8872;DHT22;4472;52.092;9.820;2023-02-02T07:35:34;5.30;99.90
8872;DHT22;4472;52.092;9.820;2023-02-02T07:38:21;5.30;99.90
8872;DHT22;4472;52.092;9.820;2023-02-02T07:41:09;5.40;99.90
8872;DHT22;4472;52.092;9.820;2023-02-02T07:43:56;5.40;99.90
8872;DHT22;4472;52.092;9.820;2023-02-02T07:46:44;5.40;99.90
8872;DHT22;4472;52.092;9.820;2023-02-02T07:49:32;5.20;99.90
8872;DHT22;4472;52.092;9.820;2023-02-02T07:52:20;5.40;99.90
8872;DHT22;4472;52.092;9.820;2023-02-02T07:55:08;5.40;99.90
8872;DHT22;4472;52.092;9.820;2023-02-02T07:57:56;5.40;99.90
8872;DHT22;4472;52.092;9.820;2023-02-02T08:00:43;5.40;99.90
8872;DHT22;4472;52.092;9.820;2023-02-02T08:03:31;5.50;99.90
8872;DHT22;4472;52.092;9.820;2023-02-02T08:06:20;5.60;99.90
8872;DHT22;4472;52.092;9.820;2023-02-02T08:09:12;5.50;99.90
8872;DHT22;4472;52.092;9.820;2023-02-02T08:12:00;5.60;99.90
8872;DHT22;4472;52.092;9.820;2023-02-02T08:14:47;5.60;99.90
8872;DHT22;4472;52.092;9.820;2023-02-02T08:17:35;5.80;99.90
8872;DHT22;4472;52.092;9.820;2023-02-02T08:20:22;5.90;99.90
8872;DHT22;4472;52.092;9.820;2023-02-02T08:23:09;5.80;99.90
8872;DHT22;4472;52.092;9.820;2023-02-02T08:26:13;5.80;99.90
8872;DHT22;4472;52.092;9.820;2023-02-02T08:29:03;5.70;99.90
8872;DHT22;4472;52.092;9.820;2023-02-02T08:31:51;5.80;99.90
8872;DHT22;4472;52.092;9.820;2023-02-02T08:34:39;5.70;99.90
8872;DHT22;4472;52.092;9.820;2023-02-02T08:37:26;5.70;99.90
8872;DHT22;4472;52.092;9.820;2023-02-02T08:40:14;5.60;99.90
8872;DHT22;4472;52.092;9.820;2023-02-02T08:43:02;5.70;99.90
8872;DHT22;4472;52.092;9.820;2023-02-02T08:45:50;5.70;99.90
8872;DHT22;4472;52.092;9.820;2023-02-02T08:48:38;5.70;99.90
8872;DHT22;4472;52.092;9.820;2023-02-02T08:51:25;5.80;99.90
8872;DHT22;4472;52.092;9.820;2023-02-02T08:54:15;5.80;99.90
8872;DHT22;4472;52.092;9.820;2023-02-02T08:57:02;5.90;99.90
8872;DHT22;4472;52.092;9.820;2023-02-02T08:59:51;5.90;99.90
8872;DHT22;4472;52.092;9.820;2023-02-02T09:02:38;5.90;99.90
8872;DHT22;4472;52.092;9.820;2023-02-02T09:05:25;5.90;99.90
8872;DHT22;4472;52.092;9.820;2023-02-02T09:08:12;5.90;99.90
8872;DHT22;4472;52.092;9.820;2023-02-02T09:11:06;6.00;99.90
8872;DHT22;4472;52.092;9.820;2023-02-02T09:13:56;6.10;99.90
8872;DHT22;4472;52.092;9.820;2023-02-02T09:16:45;6.10;99.90
8872;DHT22;4472;52.092;9.820;2023-02-02T09:19:32;6.10;99.90
8872;DHT22;4472;52.092;9.820;2023-02-02T09:22:19;6.10;99.90
8872;DHT22;4472;52.092;9.820;2023-02-02T09:25:07;6.20;99.90
8872;DHT22;4472;52.092;9.820;2023-02-02T09:27:54;6.30;99.90
8872;DHT22;4472;52.092;9.820;2023-02-02T09:30:41;6.20;99.90
8872;DHT22;4472;52.092;9.820;2023-02-02T09:33:30;6.40;99.90
8872;DHT22;4472;52.092;9.820;2023-02-02T09:36:19;6.30;99.90
8872;DHT22;4472;52.092;9.820;2023-02-02T09:39:06;6.30;99.90
8872;DHT22;4472;52.092;9.820;2023-02-02T09:42:23;6.30;99.90
8872;DHT22;4472;52.092;9.820;2023-02-02T09:45:20;6.30;99.90
8872;DHT22;4472;52.092;9.820;2023-02-02T09:48:19;6.30;99.90
8872;DHT22;4472;52.092;9.820;2023-02-02T09:51:16;6.40;99.90
8872;DHT22;4472;52.092;9.820;2023-02-02T09:54:11;6.50;99.90
8872;DHT22;4472;52.092;9.820;2023-02-02T09:57:03;6.40;99.90
8872;DHT22;4472;52.092;9.820;2023-02-02T09:59:52;6.40;99.90
8872;DHT22;4472;52.092;9.820;2023-02-02T10:02:43;6.40;99.90
8872;DHT22;4472;52.092;9.820;2023-02-02T10:05:39;6.60;99.90
8872;DHT22;4472;52.092;9.820;2023-02-02T10:08:34;6.50;99.90
8872;DHT22;4472;52.092;9.820;2023-02-02T10:11:31;6.50;99.90
8872;DHT22;4472;52.092;9.820;2023-02-02T10:14:23;6.50;99.90
8872;DHT22;4472;52.092;9.820;2023-02-02T10:17:30;6.50;99.90
8872;DHT22;4472;52.092;9.820;2023-02-02T10:20:29;6.60;99.90
8872;DHT22;4472;52.092;9.820;2023-02-02T10:23:25;6.70;99.90
8872;DHT22;4472;52.092;9.820;2023-02-02T10:26:18;6.70;99.90
8872;DHT22;4472;52.092;9.820;2023-02-02T10:29:11;6.70;99.90
8872;DHT22;4472;52.092;9.820;2023-02-02T10:32:09;6.70;99.90
8872;DHT22;4472;52.092;9.820;2023-02-02T10:35:10;6.70;99.90
8872;DHT22;4472;52.092;9.820;2023-02-02T10:38:02;6.80;99.90
8872;DHT22;4472;52.092;9.820;2023-02-02T10:40:58;6.90;99.90
8872;DHT22;4472;52.092;9.820;2023-02-02T10:44:03;6.90;99.90
8872;DHT22;4472;52.092;9.820;2023-02-02T10:46:54;7.20;99.90
8872;DHT22;4472;52.092;9.820;2023-02-02T10:49:41;6.90;99.90
8872;DHT22;4472;52.092;9.820;2023-02-02T10:52:31;6.90;99.90
8872;DHT22;4472;52.092;9.820;2023-02-02T10:55:24;7.00;99.90
8872;DHT22;4472;52.092;9.820;2023-02-02T10:58:22;7.00;99.90
8872;DHT22;4472;52.092;9.820;2023-02-02T11:01:12;6.90;99.90
8872;DHT22;4472;52.092;9.820;2023-02-02T11:04:02;6.90;99.90
8872;DHT22;4472;52.092;9.820;2023-02-02T11:07:04;6.90;99.90
8872;DHT22;4472;52.092;9.820;2023-02-02T11:09:51;6.90;99.90
8872;DHT22;4472;52.092;9.820;2023-02-02T11:12:41;6.90;99.90
8872;DHT22;4472;52.092;9.820;2023-02-02T11:15:31;6.90;99.90
8872;DHT22;4472;52.092;9.820;2023-02-02T11:18:28;7.00;99.90
8872;DHT22;4472;52.092;9.820;2023-02-02T11:21:19;6.90;99.90
8872;DHT22;4472;52.092;9.820;2023-02-02T11:24:19;6.90;99.90
8872;DHT22;4472;52.092;9.820;2023-02-02T11:27:12;6.90;99.90
8872;DHT22;4472;52.092;9.820;2023-02-02T11:30:11;6.90;99.90
8872;DHT22;4472;52.092;9.820;2023-02-02T11:32:58;7.00;99.90
8872;DHT22;4472;52.092;9.820;2023-02-02T11:35:54;7.20;99.90
8872;DHT22;4472;52.092;9.820;2023-02-02T11:38:41;7.20;99.90
8872;DHT22;4472;52.092;9.820;2023-02-02T11:41:30;7.20;99.90
8872;DHT22;4472;52.092;9.820;2023-02-02T11:44:24;7.30;99.90
8872;DHT22;4472;52.092;9.820;2023-02-02T11:47:18;7.40;99.90
8872;DHT22;4472;52.092;9.820;2023-02-02T11:50:24;7.40;99.90
8872;DHT22;4472;52.092;9.820;2023-02-02T11:53:21;7.40;99.90
8872;DHT22;4472;52.092;9.820;2023-02-02T11:56:17;7.40;99.90
8872;DHT22;4472;52.092;9.820;2023-02-02T11:59:08;7.40;99.90
8872;DHT22;4472;52.092;9.820;2023-02-02T12:02:27;7.50;99.90
8872;DHT22;4472;52.092;9.820;2023-02-02T12:05:42;7.40;99.90
8872;DHT22;4472;52.092;9.820;2023-02-02T12:08:35;7.40;99.90
8872;DHT22;4472;52.092;9.820;2023-02-02T12:11:39;7.40;99.90
8872;DHT22;4472;52.092;9.820;2023-02-02T12:14:34;7.40;99.90
8872;DHT22;4472;52.092;9.820;2023-02-02T12:17:33;7.40;99.90
8872;DHT22;4472;52.092;9.820;2023-02-02T12:20:33;7.40;99.90
8872;DHT22;4472;52.092;9.820;2023-02-02T12:23:47;7.40;99.90
8872;DHT22;4472;52.092;9.820;2023-02-02T12:26:39;7.40;99.90
8872;DHT22;4472;52.092;9.820;2023-02-02T12:36:28;7.40;99.90
8872;DHT22;4472;52.092;9.820;2023-02-02T12:39:31;7.40;99.90
8872;DHT22;4472;52.092;9.820;2023-02-02T12:42:35;8.60;99.90
8872;DHT22;4472;52.092;9.820;2023-02-02T12:45:46;7.40;99.90
8872;DHT22;4472;52.092;9.820;2023-02-02T12:48:46;7.40;99.90
8872;DHT22;4472;52.092;9.820;2023-02-02T12:51:49;7.50;99.90
8872;DHT22;4472;52.092;9.820;2023-02-02T12:55:01;7.50;99.90
8872;DHT22;4472;52.092;9.820;2023-02-02T12:57:55;6.50;99.90
8872;DHT22;4472;52.092;9.820;2023-02-02T13:01:09;7.50;99.90
8872;DHT22;4472;52.092;9.820;2023-02-02T13:04:11;7.40;99.90
8872;DHT22;4472;52.092;9.820;2023-02-02T13:07:24;7.40;99.90
8872;DHT22;4472;52.092;9.820;2023-02-02T13:10:18;7.40;99.90
8872;DHT22;4472;52.092;9.820;2023-02-02T13:13:10;7.30;99.90
8872;DHT22;4472;52.092;9.820;2023-02-02T13:16:03;7.40;99.90
8872;DHT22;4472;52.092;9.820;2023-02-02T13:18:55;7.40;99.90
8872;DHT22;4472;52.092;9.820;2023-02-02T13:21:46;7.50;99.90
8872;DHT22;4472;52.092;9.820;2023-02-02T13:24:36;7.50;99.90
8872;DHT22;4472;52.092;9.820;2023-02-02T13:27:28;7.60;99.90
8872;DHT22;4472;52.092;9.820;2023-02-02T13:30:25;7.70;99.90
8872;DHT22;4472;52.092;9.820;2023-02-02T13:33:16;7.60;99.90
8872;DHT22;4472;52.092;9.820;2023-02-02T13:36:08;7.60;99.90
8872;DHT22;4472;52.092;9.820;2023-02-02T13:39:01;7.70;99.90
8872;DHT22;4472;52.092;9.820;2023-02-02T13:41:51;7.70;99.90
8872;DHT22;4472;52.092;9.820;2023-02-02T13:44:43;7.70;99.90
8872;DHT22;4472;52.092;9.820;2023-02-02T13:47:36;7.80;99.90
8872;DHT22;4472;52.092;9.820;2023-02-02T13:50:26;8.10;99.90
8872;DHT22;4472;52.092;9.820;2023-02-02T13:53:31;8.00;99.90
8872;DHT22;4472;52.092;9.820;2023-02-02T13:56:38;7.90;99.90
8872;DHT22;4472;52.092;9.820;2023-02-02T13:59:51;8.00;99.90
8872;DHT22;4472;52.092;9.820;2023-02-02T14:02:42;7.90;99.90
8872;DHT22;4472;52.092;9.820;2023-02-02T14:05:32;8.00;99.90
8872;DHT22;4472;52.092;9.820;2023-02-02T14:08:21;8.00;99.90
8872;DHT22;4472;52.092;9.820;2023-02-02T14:11:17;7.80;99.90
8872;DHT22;4472;52.092;9.820;2023-02-02T14:14:08;7.70;99.90
8872;DHT22;4472;52.092;9.820;2023-02-02T14:17:49;7.80;99.90
8872;DHT22;4472;52.092;9.820;2023-02-02T14:20:47;7.60;99.90
8872;DHT22;4472;52.092;9.820;2023-02-02T14:23:51;7.50;99.90
8872;DHT22;4472;52.092;9.820;2023-02-02T14:26:40;7.50;99.90
8872;DHT22;4472;52.092;9.820;2023-02-02T14:29:36;7.50;99.90
8872;DHT22;4472;52.092;9.820;2023-02-02T14:32:41;6.50;99.90
8872;DHT22;4472;52.092;9.820;2023-02-02T14:35:55;7.50;99.90
8872;DHT22;4472;52.092;9.820;2023-02-02T14:39:16;7.50;99.90
8872;DHT22;4472;52.092;9.820;2023-02-02T14:42:19;7.40;99.90
8872;DHT22;4472;52.092;9.820;2023-02-02T14:45:29;7.40;99.90
8872;DHT22;4472;52.092;9.820;2023-02-02T14:48:18;7.30;99.90
8872;DHT22;4472;52.092;9.820;2023-02-02T14:51:14;7.30;99.90
8872;DHT22;4472;52.092;9.820;2023-02-02T14:54:05;7.30;99.90
8872;DHT22;4472;52.092;9.820;2023-02-02T14:56:57;7.40;99.90
8872;DHT22;4472;52.092;9.820;2023-02-02T14:59:45;7.50;99.90
8872;DHT22;4472;52.092;9.820;2023-02-02T15:02:34;7.20;99.90
8872;DHT22;4472;52.092;9.820;2023-02-02T15:05:43;7.20;99.90
8872;DHT22;4472;52.092;9.820;2023-02-02T15:08:32;7.20;99.90
8872;DHT22;4472;52.092;9.820;2023-02-02T15:11:19;7.20;99.90
8872;DHT22;4472;52.092;9.820;2023-02-02T15:14:18;7.20;99.90
8872;DHT22;4472;52.092;9.820;2023-02-02T15:17:13;7.30;99.90
8872;DHT22;4472;52.092;9.820;2023-02-02T15:20:12;7.10;99.90
8872;DHT22;4472;52.092;9.820;2023-02-02T15:23:14;7.10;99.90
8872;DHT22;4472;52.092;9.820;2023-02-02T15:26:08;7.00;99.90
8872;DHT22;4472;52.092;9.820;2023-02-02T15:29:02;6.90;99.90
8872;DHT22;4472;52.092;9.820;2023-02-02T15:31:53;7.00;99.90
8872;DHT22;4472;52.092;9.820;2023-02-02T15:34:43;6.80;99.90
8872;DHT22;4472;52.092;9.820;2023-02-02T15:37:35;6.90;99.90
8872;DHT22;4472;52.092;9.820;2023-02-02T15:40:26;6.70;99.90
8872;DHT22;4472;52.092;9.820;2023-02-02T15:43:17;6.80;99.90
8872;DHT22;4472;52.092;9.820;2023-02-02T15:46:08;6.70;99.90
8872;DHT22;4472;52.092;9.820;2023-02-02T15:49:23;6.70;99.90
8872;DHT22;4472;52.092;9.820;2023-02-02T15:52:16;6.70;99.90
8872;DHT22;4472;52.092;9.820;2023-02-02T15:55:19;6.80;99.90
8872;DHT22;4472;52.092;9.820;2023-02-02T15:58:24;6.70;99.90
8872;DHT22;4472;52.092;9.820;2023-02-02T16:01:15;6.70;99.90
8872;DHT22;4472;52.092;9.820;2023-02-02T16:04:12;6.70;99.90
8872;DHT22;4472;52.092;9.820;2023-02-02T16:07:00;6.50;99.90
8872;DHT22;4472;52.092;9.820;2023-02-02T16:09:48;6.60;99.90
8872;DHT22;4472;52.092;9.820;2023-02-02T16:12:39;6.80;99.90
8872;DHT22;4472;52.092;9.820;2023-02-02T16:15:28;6.50;99.90
8872;DHT22;4472;52.092;9.820;2023-02-02T16:18:16;6.50;99.90
8872;DHT22;4472;52.092;9.820;2023-02-02T16:21:13;6.60;99.90
8872;DHT22;4472;52.092;9.820;2023-02-02T16:24:03;6.60;99.90
8872;DHT22;4472;52.092;9.820;2023-02-02T16:26:54;6.40;99.90
8872;DHT22;4472;52.092;9.820;2023-02-02T16:29:43;6.30;99.90
8872;DHT22;4472;52.092;9.820;2023-02-02T16:32:34;6.50;99.90
8872;DHT22;4472;52.092;9.820;2023-02-02T16:35:33;6.30;99.90
8872;DHT22;4472;52.092;9.820;2023-02-02T16:38:24;6.50;99.90
8872;DHT22;4472;52.092;9.820;2023-02-02T16:41:13;6.40;99.90
8872;DHT22;4472;52.092;9.820;2023-02-02T16:44:37;6.30;99.90
8872;DHT22;4472;52.092;9.820;2023-02-02T16:47:36;6.30;99.90
8872;DHT22;4472;52.092;9.820;2023-02-02T16:50:29;6.20;99.90
8872;DHT22;4472;52.092;9.820;2023-02-02T16:53:21;6.20;99.90
8872;DHT22;4472;52.092;9.820;2023-02-02T16:56:10;6.20;99.90
8872;DHT22;4472;52.092;9.820;2023-02-02T16:59:13;6.10;99.90
8872;DHT22;4472;52.092;9.820;2023-02-02T17:02:03;6.10;99.90
8872;DHT22;4472;52.092;9.820;2023-02-02T17:04:55;6.00;99.90
8872;DHT22;4472;52.092;9.820;2023-02-02T17:07:47;5.80;99.90
8872;DHT22;4472;52.092;9.820;2023-02-02T17:10:36;6.00;99.90
8872;DHT22;4472;52.092;9.820;2023-02-02T17:13:36;5.80;99.90
8872;DHT22;4472;52.092;9.820;2023-02-02T17:16:24;5.80;99.90
8872;DHT22;4472;52.092;9.820;2023-02-02T17:19:12;5.70;99.90
8872;DHT22;4472;52.092;9.820;2023-02-02T17:22:01;5.70;99.90
8872;DHT22;4472;52.092;9.820;2023-02-02T17:24:51;5.70;99.90
8872;DHT22;4472;52.092;9.820;2023-02-02T17:27:38;5.70;99.90
8872;DHT22;4472;52.092;9.820;2023-02-02T17:30:26;5.60;99.90
8872;DHT22;4472;52.092;9.820;2023-02-02T17:33:16;5.70;99.90
8872;DHT22;4472;52.092;9.820;2023-02-02T17:36:04;5.60;99.90
8872;DHT22;4472;52.092;9.820;2023-02-02T17:38:53;5.60;99.90
8872;DHT22;4472;52.092;9.820;2023-02-02T17:41:43;5.70;99.90
8872;DHT22;4472;52.092;9.820;2023-02-02T17:44:31;5.60;99.90
8872;DHT22;4472;52.092;9.820;2023-02-02T17:47:19;5.60;99.90
8872;DHT22;4472;52.092;9.820;2023-02-02T17:50:07;5.60;99.90
8872;DHT22;4472;52.092;9.820;2023-02-02T17:52:56;5.60;99.90
8872;DHT22;4472;52.092;9.820;2023-02-02T17:55:45;5.60;99.90
8872;DHT22;4472;52.092;9.820;2023-02-02T17:58:32;5.60;99.90
8872;DHT22;4472;52.092;9.820;2023-02-02T18:01:19;5.50;99.90
8872;DHT22;4472;52.092;9.820;2023-02-02T18:04:07;5.50;99.90
8872;DHT22;4472;52.092;9.820;2023-02-02T18:06:56;5.50;99.90
8872;DHT22;4472;52.092;9.820;2023-02-02T18:09:43;5.50;99.90
8872;DHT22;4472;52.092;9.820;2023-02-02T18:12:32;5.50;99.90
8872;DHT22;4472;52.092;9.820;2023-02-02T18:15:19;5.50;99.90
8872;DHT22;4472;52.092;9.820;2023-02-02T18:18:07;5.40;99.90
8872;DHT22;4472;52.092;9.820;2023-02-02T18:20:54;5.50;99.90
8872;DHT22;4472;52.092;9.820;2023-02-02T18:23:41;5.40;99.90
8872;DHT22;4472;52.092;9.820;2023-02-02T18:26:28;5.60;99.90
8872;DHT22;4472;52.092;9.820;2023-02-02T18:29:18;5.40;99.90
8872;DHT22;4472;52.092;9.820;2023-02-02T18:32:05;5.40;99.90
8872;DHT22;4472;52.092;9.820;2023-02-02T18:34:53;5.40;99.90
8872;DHT22;4472;52.092;9.820;2023-02-02T18:37:41;5.40;99.90
8872;DHT22;4472;52.092;9.820;2023-02-02T18:40:28;5.40;99.90
8872;DHT22;4472;52.092;9.820;2023-02-02T18:43:15;5.30;99.90
8872;DHT22;4472;52.092;9.820;2023-02-02T18:46:06;5.40;99.90
8872;DHT22;4472;52.092;9.820;2023-02-02T18:48:55;5.30;99.90
8872;DHT22;4472;52.092;9.820;2023-02-02T18:51:42;5.30;99.90
8872;DHT22;4472;52.092;9.820;2023-02-02T18:54:32;5.30;99.90
8872;DHT22;4472;52.092;9.820;2023-02-02T18:57:20;5.30;99.90
8872;DHT22;4472;52.092;9.820;2023-02-02T19:00:09;5.30;99.90
8872;DHT22;4472;52.092;9.820;2023-02-02T19:02:57;5.30;99.90
8872;DHT22;4472;52.092;9.820;2023-02-02T19:05:44;5.40;99.90
8872;DHT22;4472;52.092;9.820;2023-02-02T19:08:49;5.30;99.90
8872;DHT22;4472;52.092;9.820;2023-02-02T19:11:39;5.40;99.90
8872;DHT22;4472;52.092;9.820;2023-02-02T19:14:30;5.50;99.90